Aeroporto :
LOGIN :

Iscrizione | Disclaimer

   EN    FR    IT 

 










Sommario :    VFR   VFR Marginale   IFR   IFR Intensivo   IFR Molto Intensivo
Visibilità : 
Base nubi : 
>= 8 km
>= 3000ft
5 / 8 km
1000 / 3000 ft
1500m / 5 km
500 / 1000 ft
800 / 1500m
200 / 500 ft
< 800m
< 200 ft
Simboli :   Temporali  Nebbia  Neve Forte  Precipitazioni Forti  Vento > 20 kt
SIGMETs :   Varie  Temporali  Ghiacco  Turbolenza  Onda orograficha  Ceneri Vulcaniche






- Altitudine del aeroporto : 65 ft
- Codice IATA : PIK


EGPK - Glasgow Prestwick

ULTIMO METAR :
  • 280620Z 12007G17KT 9999 FEW048 04/02 Q1002

METARs OBSOLETI :
  • 280550Z 12007KT 9999 FEW026 04/02 Q1003
  • 280450Z 10005KT 9999 FEW026 03/01 Q1004
  • 280350Z 18007KT 9999 FEW035 04/01 Q1005

TAF TAF EGPK
Valido dal 28 a 06 ore il 29 a 06 ore UTC


280454Z 2806/2906 20009KT 9999 FEW010 SCT020
TEMPO 2807/2819 5000 RA BKN010
PROB40
TEMPO 2807/2812 4000 RASN BKN008
BECMG 2809/2812 13012KT
PROB40
TEMPO 2812/2815 14015G25KT 3000 +RADZ RASN BKN005
PROB30
TEMPO 2815/2822 4000 RADZ BKN008
TEMPO 2822/2906 15018G28KT 5000 RA BKN012
BECMG 2903/2906 26009KT
PROB30
TEMPO 2903/2906 3000 +RA BKN006



MetMap, La meteo Aeronautica in un colpo d'occhio ! - Copyright ORBIFLY Dicembre 2007 - Disclaimer

ORBIFLY MET'MAP TEAM :

Programmazione e sviluppo : Alexandra Zaïnal
Concezione : Baudouin d'Aumeries
Aiuto per la programmazione : Marc-Olivier Méhu
Supporto tecnico e logistico : Manuel Goepfert
Aiuto per la traduzione : Arnaldo La Scala

Contatto : metmap@orbifly.com




FONTI E CREDITI :

   NOAA